METAR Data
IDs: Format: Raw Decoded Include TAF

Data at: 0307 UTC 15 Aug 2020

METAR for:KCGS (College Park Arpt, MD, US)
Text:KCGS 150255Z AUTO 00000KT 10SM BKN110 23/20 A2998 RMK AO1 T02300196
Temperature: 23.0°C ( 73°F)
Dewpoint: 19.6°C ( 67°F) [RH = 81%]
Pressure (altimeter):29.98 inches Hg (1015.3 mb)
Winds:calm
Visibility:10 or more sm (16+ km)
Ceiling:11000 feet AGL
Clouds: broken clouds at 11000 feet AGL
QC Flag:automated observation with no human augmentation